Time;durP1;ratioP1;P1;durP2;ratioP2;P2;SDS_P1;SDS_P2;PMS_P1;PMS_P2;Temp;Humidity;BMP_temperature;BMP_pressure;BME280_temperature;BME280_humidity;BME280_pressure;Samples;Min_cycle;Max_cycle;Signal;HPM_P1;HPM_P2
2021/10/30 00:01:15;;;;;;;18.50;15.80;;;;;;;9.22;47.78;100448.64;118478;1174;22614;-75
2021/10/30 00:03:43;;;;;;;18.70;14.70;;;;;;;9.14;47.93;100447.21;118280;1177;21881;-76
2021/10/30 00:06:11;;;;;;;27.90;18.80;;;;;;;9.05;48.10;100446.68;118627;1173;21879;-75
2021/10/30 00:08:39;;;;;;;21.50;14.80;;;;;;;8.97;48.48;100453.42;118369;1177;21865;-75
2021/10/30 00:11:07;;;;;;;19.90;16.40;;;;;;;8.90;48.71;100456.77;118507;1175;21853;-74
2021/10/30 00:13:35;;;;;;;20.40;15.80;;;;;;;8.84;48.97;100458.10;118545;1174;23425;-75
2021/10/30 00:16:04;;;;;;;29.00;23.00;;;;;;;8.79;49.25;100454.27;118379;1169;21905;-75
2021/10/30 00:18:32;;;;;;;30.50;19.90;;;;;;;8.74;49.51;100453.66;118312;1177;21871;-74
2021/10/30 00:21:00;;;;;;;23.80;17.80;;;;;;;8.72;49.76;100456.87;118428;1177;21857;-74
2021/10/30 00:23:28;;;;;;;21.50;16.90;;;;;;;8.71;50.02;100452.06;118280;1178;21892;-74
2021/10/30 00:25:56;;;;;;;20.60;17.10;;;;;;;8.68;50.14;100451.95;118278;1175;21866;-75
2021/10/30 00:28:24;;;;;;;19.50;15.20;;;;;;;8.67;50.22;100452.06;118334;1178;22617;-74
2021/10/30 00:30:51;;;;;;;18.50;15.40;;;;;;;8.66;50.35;100447.96;118239;1176;21900;-74
2021/10/30 00:33:19;;;;;;;18.70;14.30;;;;;;;8.65;50.44;100446.46;118797;1175;22662;-75
2021/10/30 00:35:47;;;;;;;19.40;16.40;;;;;;;8.65;50.50;100447.41;118828;1175;22725;-75
2021/10/30 00:38:15;;;;;;;19.90;15.30;;;;;;;8.63;50.55;100450.69;118698;1174;21991;-74
2021/10/30 00:40:42;;;;;;;17.90;15.60;;;;;;;8.64;50.69;100453.48;118674;1175;21905;-75
2021/10/30 00:43:10;;;;;;;21.40;16.00;;;;;;;8.64;50.68;100456.23;118416;1174;21855;-74
2021/10/30 00:45:38;;;;;;;23.70;17.20;;;;;;;8.63;50.66;100458.45;118425;1173;22243;-74
2021/10/30 00:48:06;;;;;;;21.90;18.50;;;;;;;8.63;50.80;100457.56;118850;1173;21921;-74
2021/10/30 00:50:33;;;;;;;18.10;15.30;;;;;;;8.62;50.87;100454.98;118275;1177;23418;-75
2021/10/30 00:53:01;;;;;;;18.50;14.60;;;;;;;8.60;50.89;100450.66;117976;1180;22874;-75
2021/10/30 00:55:30;;;;;;;23.50;14.50;;;;;;;8.58;50.97;100448.60;118221;1180;21886;-75
2021/10/30 00:58:00;;;;;;;23.20;16.70;;;;;;;8.55;51.02;100446.77;117891;1180;23457;-75
2021/10/30 01:00:30;;;;;;;19.20;15.00;;;;;;;8.50;51.04;100445.17;117948;1178;22001;-74
2021/10/30 01:02:58;;;;;;;18.40;16.20;;;;;;;8.45;51.10;100443.78;118436;1178;21914;-75
2021/10/30 01:05:26;;;;;;;19.20;14.60;;;;;;;8.39;51.26;100446.95;118125;1180;21856;-74
2021/10/30 01:07:54;;;;;;;18.90;16.90;;;;;;;8.33;51.41;100441.02;117553;1177;21858;-75
2021/10/30 01:10:22;;;;;;;21.50;15.80;;;;;;;8.29;51.50;100437.20;117934;1178;21872;-74
2021/10/30 01:12:51;;;;;;;22.60;17.70;;;;;;;8.27;51.59;100440.23;118260;1178;21901;-74
2021/10/30 01:15:19;;;;;;;24.80;17.90;;;;;;;8.24;51.69;100439.65;118271;1178;21877;-74
2021/10/30 01:17:47;;;;;;;24.10;18.30;;;;;;;8.20;51.85;100438.13;118264;1174;22885;-75
2021/10/30 01:20:26;;;;;;;24.60;18.00;;;;;;;8.15;51.91;100440.20;118294;1178;21903;-75
2021/10/30 01:23:00;;;;;;;22.50;18.40;;;;;;;8.09;52.12;100438.09;118339;1176;23239;-75
2021/10/30 01:25:29;;;;;;;22.30;16.70;;;;;;;8.07;52.32;100435.73;118650;1174;21974;-75
2021/10/30 01:27:59;;;;;;;22.30;16.60;;;;;;;8.06;52.50;100435.83;118706;1174;22174;-75
2021/10/30 01:30:30;;;;;;;20.50;18.00;;;;;;;8.06;52.58;100436.00;118689;1177;21871;-75
2021/10/30 01:33:08;;;;;;;19.60;15.20;;;;;;;8.06;52.59;100436.29;118155;1180;22897;-75
2021/10/30 01:35:43;;;;;;;22.80;15.50;;;;;;;8.04;52.64;100434.92;117875;1182;22622;-75
2021/10/30 01:38:12;;;;;;;22.40;16.60;;;;;;;8.01;52.73;100431.70;117923;1177;21874;-75
2021/10/30 01:40:43;;;;;;;19.50;15.50;;;;;;;7.99;52.87;100429.05;117969;1179;21907;-75
2021/10/30 01:43:13;;;;;;;19.40;15.60;;;;;;;7.97;52.95;100428.55;117901;1182;21857;-75
2021/10/30 01:45:44;;;;;;;20.40;16.50;;;;;;;7.92;53.00;100426.98;117990;1180;21918;-75
2021/10/30 01:48:13;;;;;;;22.70;17.50;;;;;;;7.84;53.02;100421.27;117953;1174;21902;-75
2021/10/30 01:50:45;;;;;;;19.70;16.70;;;;;;;7.75;53.15;100419.80;117982;1179;22910;-76
2021/10/30 01:53:13;;;;;;;21.40;17.80;;;;;;;7.69;53.43;100420.45;117940;1180;22328;-76
2021/10/30 01:55:41;;;;;;;22.70;17.80;;;;;;;7.63;53.66;100419.03;118172;1180;23447;-74
2021/10/30 01:58:09;;;;;;;21.70;16.60;;;;;;;7.59;53.83;100417.21;118240;1167;21859;-75
2021/10/30 02:00:40;;;;;;;20.20;16.30;;;;;;;7.54;53.91;100415.55;117920;1177;24138;-75
2021/10/30 02:03:09;;;;;;;23.60;15.80;;;;;;;7.50;54.03;100414.14;117958;1180;22633;-75
2021/10/30 02:05:38;;;;;;;18.40;15.90;;;;;;;7.46;54.20;100415.91;118269;1177;21874;-75
2021/10/30 02:08:09;;;;;;;20.80;17.30;;;;;;;7.45;54.38;100420.80;118374;1178;21876;-75
2021/10/30 02:10:37;;;;;;;19.30;15.90;;;;;;;7.46;54.54;100418.41;118333;1174;21896;-74
2021/10/30 02:13:05;;;;;;;18.50;15.00;;;;;;;7.47;54.51;100418.18;118874;1174;22888;-74
2021/10/30 02:15:33;;;;;;;20.00;15.60;;;;;;;7.46;54.53;100418.55;118634;1176;22745;-74
2021/10/30 02:18:00;;;;;;;17.90;15.90;;;;;;;7.46;54.63;100417.92;118624;1173;21848;-74
2021/10/30 02:20:28;;;;;;;20.60;15.70;;;;;;;7.44;54.61;100419.66;118753;1173;23474;-74
2021/10/30 02:22:56;;;;;;;18.90;15.70;;;;;;;7.43;54.71;100419.27;118296;1178;21863;-74
2021/10/30 02:25:27;;;;;;;20.30;15.10;;;;;;;7.39;54.73;100423.78;118592;1174;24243;-74
2021/10/30 02:27:56;;;;;;;22.10;15.50;;;;;;;7.38;54.84;100420.44;118274;1177;22729;-75
2021/10/30 02:30:23;;;;;;;17.50;15.00;;;;;;;7.36;54.94;100419.20;118284;1177;23495;-74
2021/10/30 02:32:53;;;;;;;20.40;15.70;;;;;;;7.34;54.97;100419.61;118338;1177;23435;-74
2021/10/30 02:35:22;;;;;;;21.00;15.50;;;;;;;7.33;54.96;100419.33;118647;1176;23677;-75
2021/10/30 02:37:51;;;;;;;18.00;14.90;;;;;;;7.30;54.91;100423.61;118275;1176;21920;-75
2021/10/30 02:40:20;;;;;;;28.30;20.50;;;;;;;7.27;54.93;100421.05;118308;1176;21858;-74
2021/10/30 02:42:47;;;;;;;25.70;18.80;;;;;;;7.24;54.94;100417.51;118142;1179;21864;-74
2021/10/30 02:45:16;;;;;;;27.20;17.70;;;;;;;7.22;55.14;100413.52;118246;1179;22580;-75
2021/10/30 02:47:44;;;;;;;22.20;16.60;;;;;;;7.21;55.35;100409.95;118271;1179;24191;-75
2021/10/30 02:50:12;;;;;;;20.00;17.00;;;;;;;7.21;55.65;100410.10;118219;1177;24264;-75
2021/10/30 02:52:41;;;;;;;18.30;15.40;;;;;;;7.21;55.81;100408.31;118290;1177;21880;-75
2021/10/30 02:55:10;;;;;;;20.50;16.60;;;;;;;7.22;55.94;100408.11;118078;1180;22937;-75
2021/10/30 02:57:46;;;;;;;24.00;17.10;;;;;;;7.22;55.96;100407.89;117968;1177;21924;-75
2021/10/30 03:00:16;;;;;;;22.30;16.00;;;;;;;7.22;55.92;100412.66;118145;1180;23432;-75
2021/10/30 03:02:44;;;;;;;18.70;16.30;;;;;;;7.20;55.91;100414.41;118204;1177;22788;-76
2021/10/30 03:05:15;;;;;;;21.10;18.40;;;;;;;7.19;56.01;100417.80;118277;1180;23662;-75
2021/10/30 03:07:45;;;;;;;22.60;19.10;;;;;;;7.18;56.02;100419.52;118090;1178;21946;-75
2021/10/30 03:10:18;;;;;;;22.20;18.30;;;;;;;7.16;56.07;100418.67;118599;1176;21869;-75
2021/10/30 03:12:48;;;;;;;22.20;18.70;;;;;;;7.13;56.11;100416.11;118481;1162;21858;-74
2021/10/30 03:15:17;;;;;;;23.30;16.90;;;;;;;7.11;56.15;100417.34;118478;1176;21876;-75
2021/10/30 03:17:46;;;;;;;24.30;17.40;;;;;;;7.11;56.34;100417.39;118765;1171;22061;-75
2021/10/30 03:20:14;;;;;;;25.20;18.00;;;;;;;7.10;56.44;100416.95;119073;1171;22791;-75
2021/10/30 03:22:46;;;;;;;20.80;17.30;;;;;;;7.09;56.42;100416.46;118960;1174;22840;-75
2021/10/30 03:25:14;;;;;;;21.40;16.70;;;;;;;7.10;56.49;100416.92;118974;1173;22829;-75
2021/10/30 03:27:42;;;;;;;23.90;19.00;;;;;;;7.11;56.58;100417.00;118846;1174;22868;-75
2021/10/30 03:30:11;;;;;;;21.90;17.60;;;;;;;7.10;56.56;100418.30;118847;1171;21898;-76
2021/10/30 03:32:41;;;;;;;23.70;19.20;;;;;;;7.06;56.50;100418.81;118428;1174;21918;-75
2021/10/30 03:35:12;;;;;;;23.50;17.50;;;;;;;7.01;56.60;100418.39;118614;1177;23659;-75
2021/10/30 03:38:02;;;;;;;22.90;18.90;;;;;;;6.94;56.72;100415.59;118027;1180;21881;-75
2021/10/30 03:40:30;;;;;;;20.30;17.10;;;;;;;6.88;56.95;100414.23;118261;1178;22824;-76
2021/10/30 03:43:01;;;;;;;21.40;18.00;;;;;;;6.85;57.09;100416.45;118192;1177;21991;-75
2021/10/30 03:45:29;;;;;;;22.80;18.70;;;;;;;6.83;57.16;100415.70;117995;1177;23573;-75
2021/10/30 03:48:00;;;;;;;23.90;18.90;;;;;;;6.80;57.17;100416.67;118119;1179;23489;-76
2021/10/30 03:50:31;;;;;;;25.60;19.80;;;;;;;6.77;57.26;100415.91;118308;1176;22932;-75
2021/10/30 03:52:59;;;;;;;28.20;20.30;;;;;;;6.76;57.36;100412.38;117975;1180;22416;-75
2021/10/30 03:55:39;;;;;;;26.20;20.70;;;;;;;6.75;57.45;100418.73;118100;1177;22725;-75
2021/10/30 03:58:18;;;;;;;29.60;22.00;;;;;;;6.74;57.58;100417.98;118306;1177;22897;-75
2021/10/30 04:00:49;;;;;;;32.60;23.30;;;;;;;6.76;57.79;100421.08;118317;1178;22106;-75
2021/10/30 04:03:35;;;;;;;28.40;21.90;;;;;;;6.79;57.82;100419.42;118294;1179;23502;-75
2021/10/30 04:06:07;;;;;;;25.00;20.00;;;;;;;6.83;57.91;100417.84;118289;1179;24684;-74
2021/10/30 04:08:45;;;;;;;23.00;18.70;;;;;;;6.87;57.94;100420.45;117898;1181;21896;-75
2021/10/30 04:11:17;;;;;;;25.40;17.90;;;;;;;6.88;57.93;100416.49;117909;1181;22881;-74
2021/10/30 04:13:48;;;;;;;23.90;17.70;;;;;;;6.89;58.06;100412.80;117905;1181;22716;-74
2021/10/30 04:16:16;;;;;;;23.20;17.10;;;;;;;6.90;58.14;100418.13;117963;1181;21877;-74
2021/10/30 04:18:44;;;;;;;20.20;15.80;;;;;;;6.91;58.13;100415.16;118104;1177;22048;-75
2021/10/30 04:21:13;;;;;;;19.00;15.40;;;;;;;6.92;57.99;100412.45;118532;1174;23552;-75
2021/10/30 04:23:44;;;;;;;23.60;16.90;;;;;;;6.92;57.96;100410.88;118835;1174;22832;-75
2021/10/30 04:26:12;;;;;;;22.80;17.80;;;;;;;6.92;57.95;100410.52;118765;1173;22832;-74
2021/10/30 04:28:44;;;;;;;25.40;17.80;;;;;;;6.92;57.95;100406.38;119208;1164;22937;-75
2021/10/30 04:31:20;;;;;;;28.90;24.30;;;;;;;6.91;57.96;100405.92;119078;1173;22787;-74
2021/10/30 04:33:52;;;;;;;28.10;20.50;;;;;;;6.90;57.95;100411.23;119251;1162;21884;-74
2021/10/30 04:36:23;;;;;;;;;;;;;;;6.92;57.95;100407.42;118693;1172;21854;-73
2021/10/30 04:38:53;;;;;;;23.70;17.70;;;;;;;6.89;58.11;100405.96;118737;1176;21891;-73
2021/10/30 04:41:24;;;;;;;26.70;19.40;;;;;;;6.91;58.14;100408.19;118773;1176;22835;-74
2021/10/30 04:43:52;;;;;;;24.70;18.50;;;;;;;6.96;58.06;100411.03;118810;1173;23367;-73
2021/10/30 04:46:23;;;;;;;25.10;19.20;;;;;;;7.01;57.99;100409.65;118806;1174;21878;-74
2021/10/30 04:48:51;;;;;;;23.40;19.40;;;;;;;7.04;57.89;100409.89;118931;1174;21897;-75
2021/10/30 04:51:20;;;;;;;23.00;17.70;;;;;;;7.05;57.88;100406.33;118792;1174;21867;-75
2021/10/30 04:53:48;;;;;;;21.20;16.90;;;;;;;7.04;57.78;100406.08;118577;1174;23569;-75
2021/10/30 04:56:18;;;;;;;22.30;17.50;;;;;;;7.03;57.79;100402.48;118751;1172;22323;-75
2021/10/30 04:58:46;;;;;;;21.90;17.50;;;;;;;7.00;57.71;100400.98;118693;1174;23718;-76
2021/10/30 05:01:17;;;;;;;22.40;15.30;;;;;;;6.98;57.69;100397.88;118360;1176;22062;-74
2021/10/30 05:03:46;;;;;;;21.40;17.90;;;;;;;6.93;57.74;100400.45;118320;1179;22631;-75
2021/10/30 05:06:15;;;;;;;28.10;18.10;;;;;;;6.91;57.85;100401.23;118032;1180;21858;-75
2021/10/30 05:08:46;;;;;;;24.10;17.30;;;;;;;6.88;57.88;100400.73;117729;1178;22469;-75
2021/10/30 05:11:14;;;;;;;28.00;19.10;;;;;;;6.87;57.91;100401.18;117920;1180;21867;-75
2021/10/30 05:13:45;;;;;;;24.90;17.90;;;;;;;6.85;57.95;100401.71;118176;1180;21889;-78
2021/10/30 05:16:13;;;;;;;22.50;19.20;;;;;;;6.83;57.89;100400.66;117693;1182;22069;-76
2021/10/30 05:18:41;;;;;;;25.40;20.40;;;;;;;6.82;58.03;100400.25;117742;1180;21864;-78
2021/10/30 05:24:37;;;;;;;;;;;;;;;;;;;;;
2021/10/30 05:27:11;;;;;;;34.90;24.50;;;;;;;6.87;58.20;100412.73;118700;1173;23337;-78
2021/10/30 05:29:40;;;;;;;42.10;24.80;;;;;;;6.91;58.28;100415.33;118771;1174;22905;-76
2021/10/30 05:32:08;;;;;;;32.50;22.10;;;;;;;6.95;58.27;100420.54;118789;1173;24123;-77
2021/10/30 05:34:47;;;;;;;29.10;22.20;;;;;;;6.97;58.25;100420.00;118903;1174;21859;-76
2021/10/30 05:37:42;;;;;;;28.30;20.40;;;;;;;6.97;58.22;100420.41;118969;1174;21901;-77
2021/10/30 05:40:13;;;;;;;26.20;19.50;;;;;;;6.97;58.34;100422.33;119004;1171;22166;-77
2021/10/30 05:42:48;;;;;;;32.20;20.30;;;;;;;6.97;58.29;100419.56;118954;1171;21866;-79
2021/10/30 05:45:16;;;;;;;29.40;22.10;;;;;;;6.96;58.43;100417.32;119467;1171;22428;-79
2021/10/30 05:47:56;;;;;;;29.70;22.20;;;;;;;6.96;58.39;100421.20;119167;1170;24100;-80
2021/10/30 05:50:50;;;;;;;164.40;97.50;;;;;;;6.96;58.57;100418.94;119303;1170;21851;-78
2021/10/30 05:53:22;;;;;;;72.80;46.40;;;;;;;6.98;58.66;100421.35;119150;1171;21856;-80
2021/10/30 05:56:01;;;;;;;39.50;27.70;;;;;;;7.02;58.64;100427.40;119670;1171;21924;-80
2021/10/30 05:58:44;;;;;;;35.90;23.10;;;;;;;7.07;58.56;100430.16;119391;1171;21854;-78
2021/10/30 06:01:23;;;;;;;30.60;22.70;;;;;;;7.08;58.50;100434.23;119214;1171;23412;-78
2021/10/30 06:03:53;;;;;;;28.10;21.90;;;;;;;7.12;58.53;100436.20;118981;1172;21904;-78
2021/10/30 06:06:21;;;;;;;36.70;24.50;;;;;;;7.13;58.54;100434.52;118806;1174;21872;-78
2021/10/30 06:08:49;;;;;;;42.70;28.80;;;;;;;7.14;58.59;100433.86;118419;1174;23445;-77
2021/10/30 06:11:17;;;;;;;41.60;28.30;;;;;;;7.15;58.68;100431.38;118519;1174;22759;-78
2021/10/30 06:13:48;;;;;;;80.70;47.90;;;;;;;7.15;58.73;100435.23;118727;1174;23445;-80
2021/10/30 06:16:17;;;;;;;102.80;56.20;;;;;;;7.15;58.82;100436.79;118746;1176;23455;-80
2021/10/30 06:19:05;;;;;;;98.10;54.70;;;;;;;7.14;58.86;100436.69;118586;1163;22898;-79
2021/10/30 06:21:33;;;;;;;87.90;50.90;;;;;;;7.14;58.92;100433.85;118588;1177;21862;-80
2021/10/30 06:24:01;;;;;;;79.90;47.90;;;;;;;7.16;58.99;100433.52;118709;1175;21893;-80
2021/10/30 06:26:30;;;;;;;85.00;50.50;;;;;;;7.19;59.01;100435.65;118384;1177;21884;-80
2021/10/30 06:28:59;;;;;;;96.50;55.20;;;;;;;7.24;59.03;100441.67;118578;1177;23246;-81
2021/10/30 06:31:27;;;;;;;83.80;48.30;;;;;;;7.29;58.99;100443.85;118609;1174;21974;-80
2021/10/30 06:33:55;;;;;;;73.60;42.10;;;;;;;7.35;59.06;100449.25;118610;1177;23487;-80
2021/10/30 06:36:23;;;;;;;60.40;38.50;;;;;;;7.41;59.07;100448.53;118238;1178;23422;-80
2021/10/30 06:38:52;;;;;;;58.10;36.50;;;;;;;7.46;58.97;100444.73;118224;1180;21896;-80
2021/10/30 06:41:40;;;;;;;60.00;38.70;;;;;;;7.49;58.94;100449.66;118279;1180;22964;-81
2021/10/30 06:44:08;;;;;;;59.70;38.10;;;;;;;7.53;58.97;100448.36;118041;1177;22638;-80
2021/10/30 06:46:39;;;;;;;49.30;32.90;;;;;;;7.58;58.94;100446.70;118849;1174;22263;-80
2021/10/30 06:49:19;;;;;;;47.20;31.20;;;;;;;7.63;58.81;100440.68;118792;1175;22060;-80
2021/10/30 06:51:52;;;;;;;44.00;30.70;;;;;;;7.66;58.68;100438.20;118779;1164;21863;-79
2021/10/30 06:54:24;;;;;;;45.60;33.00;;;;;;;7.70;58.58;100442.28;118847;1172;21856;-80
2021/10/30 06:56:54;;;;;;;45.20;30.80;;;;;;;7.74;58.59;100440.95;119265;1172;21874;-80
2021/10/30 06:59:22;;;;;;;41.40;27.10;;;;;;;7.78;58.44;100437.39;118870;1174;23289;-79
2021/10/30 07:01:50;;;;;;;30.70;23.10;;;;;;;7.84;58.34;100437.44;118945;1174;21866;-78
2021/10/30 07:04:19;;;;;;;43.90;28.70;;;;;;;7.90;58.26;100433.46;118954;1174;21926;-79
2021/10/30 07:06:57;;;;;;;34.30;26.20;;;;;;;7.96;58.11;100435.54;118802;1173;22704;-78
2021/10/30 07:09:28;;;;;;;34.70;24.80;;;;;;;8.03;58.02;100440.31;118462;1179;21879;-79
2021/10/30 07:11:55;;;;;;;33.20;24.10;;;;;;;8.12;57.89;100436.28;117992;1180;23487;-79
2021/10/30 07:14:43;;;;;;;27.80;19.30;;;;;;;8.22;57.72;100431.90;118323;1180;22017;-77
2021/10/30 07:17:11;;;;;;;29.70;21.10;;;;;;;8.35;57.67;100432.39;118222;1179;22177;-79
2021/10/30 07:19:39;;;;;;;25.00;18.50;;;;;;;8.47;57.49;100430.18;118006;1179;21912;-78
2021/10/30 07:22:07;;;;;;;23.70;18.40;;;;;;;8.59;57.27;100426.06;117995;1181;21963;-78
2021/10/30 07:24:35;;;;;;;30.10;20.40;;;;;;;8.69;57.05;100426.10;118072;1179;22328;-79
2021/10/30 07:27:03;;;;;;;25.10;19.80;;;;;;;8.78;56.90;100431.11;118279;1175;22725;-79
2021/10/30 07:29:32;;;;;;;22.80;18.60;;;;;;;8.87;56.65;100436.01;118720;1174;21869;-79
2021/10/30 07:32:01;;;;;;;28.60;19.50;;;;;;;8.97;56.39;100437.15;118958;1174;21877;-81
2021/10/30 07:34:29;;;;;;;23.10;18.70;;;;;;;9.07;56.26;100432.25;118475;1179;23231;-79
2021/10/30 07:36:57;;;;;;;25.90;22.80;;;;;;;9.18;56.05;100430.30;118377;1177;21899;-78
2021/10/30 07:39:30;;;;;;;25.80;20.80;;;;;;;9.29;55.86;100428.21;118595;1178;22054;-81
2021/10/30 07:42:07;;;;;;;22.00;17.60;;;;;;;9.42;55.47;100430.41;118450;1178;22885;-83
2021/10/30 07:44:39;;;;;;;22.70;17.90;;;;;;;9.56;55.32;100431.29;118781;1178;23445;-80
2021/10/30 07:47:10;;;;;;;23.20;18.60;;;;;;;9.74;55.11;100431.38;118585;1172;21860;-80
2021/10/30 07:49:41;;;;;;;23.90;17.10;;;;;;;9.91;54.66;100434.45;118630;1174;23424;-80
2021/10/30 07:52:14;;;;;;;24.10;17.60;;;;;;;10.12;54.66;100432.60;118397;1176;22028;-78
2021/10/30 07:54:42;;;;;;;20.80;16.60;;;;;;;10.37;54.37;100428.25;118014;1181;21903;-80
2021/10/30 07:57:14;;;;;;;20.00;15.40;;;;;;;10.61;53.85;100420.73;118026;1179;21861;-77
2021/10/30 07:59:42;;;;;;;22.80;16.50;;;;;;;10.82;53.32;100417.02;118757;1174;23511;-79
2021/10/30 08:02:10;;;;;;;20.30;16.00;;;;;;;11.02;52.79;100414.97;118830;1174;21878;-78
2021/10/30 08:04:38;;;;;;;23.90;16.70;;;;;;;11.21;52.13;100412.89;118809;1173;22949;-78
2021/10/30 08:07:06;;;;;;;18.60;16.30;;;;;;;11.38;51.47;100410.15;118794;1174;21873;-78
2021/10/30 08:09:34;;;;;;;21.90;16.40;;;;;;;11.54;51.10;100403.54;118965;1173;22052;-78
2021/10/30 08:12:03;;;;;;;21.30;15.60;;;;;;;11.67;50.31;100396.75;118830;1172;22611;-78
2021/10/30 08:14:31;;;;;;;22.80;15.10;;;;;;;11.80;49.75;100393.61;119261;1172;21875;-78
2021/10/30 08:16:59;;;;;;;19.30;14.90;;;;;;;11.92;49.61;100392.58;119007;1172;23550;-77
2021/10/30 08:19:29;;;;;;;20.70;15.20;;;;;;;12.04;49.11;100398.00;118847;1175;24174;-79
2021/10/30 08:21:57;;;;;;;20.30;15.00;;;;;;;12.10;48.61;100392.48;118944;1174;23414;-78
2021/10/30 08:24:25;;;;;;;17.30;13.60;;;;;;;12.13;48.32;100384.89;118796;1174;22594;-78
2021/10/30 08:26:54;;;;;;;20.60;13.70;;;;;;;12.19;48.14;100385.06;118912;1171;24212;-78
2021/10/30 08:29:22;;;;;;;17.40;13.90;;;;;;;12.26;47.77;100384.41;118949;1174;22606;-78
2021/10/30 08:31:50;;;;;;;17.70;14.00;;;;;;;12.30;47.42;100386.23;118984;1174;21864;-78
2021/10/30 08:34:18;;;;;;;24.60;15.30;;;;;;;12.40;47.41;100387.38;118465;1176;21882;-78
2021/10/30 08:36:49;;;;;;;19.10;14.60;;;;;;;12.50;46.94;100379.70;118114;1177;21873;-78
2021/10/30 08:39:17;;;;;;;18.50;13.90;;;;;;;12.56;46.87;100377.33;118899;1165;21934;-78
2021/10/30 08:41:48;;;;;;;18.30;14.20;;;;;;;12.62;46.79;100374.17;118477;1177;23416;-77
2021/10/30 08:44:19;;;;;;;18.20;14.30;;;;;;;12.70;46.43;100373.73;118436;1177;22243;-78
2021/10/30 08:46:51;;;;;;;26.20;15.80;;;;;;;12.76;46.00;100371.88;118376;1177;21871;-78
2021/10/30 08:49:20;;;;;;;18.40;14.30;;;;;;;12.81;45.75;100367.41;118523;1177;23430;-76
2021/10/30 08:51:49;;;;;;;19.60;13.60;;;;;;;12.86;45.76;100364.65;118470;1175;23605;-78
2021/10/30 08:54:17;;;;;;;17.20;14.20;;;;;;;12.90;45.62;100354.91;118995;1172;21869;-78
2021/10/30 08:56:45;;;;;;;18.60;13.50;;;;;;;12.96;45.35;100348.83;119181;1158;21913;-77
2021/10/30 08:59:14;;;;;;;19.40;13.90;;;;;;;13.00;45.12;100346.92;118956;1171;22640;-78
2021/10/30 09:01:53;;;;;;;18.60;13.30;;;;;;;13.02;44.75;100345.81;118942;1174;21869;-78
2021/10/30 09:04:23;;;;;;;25.50;16.10;;;;;;;13.04;44.52;100348.93;118823;1174;21852;-78
2021/10/30 09:07:07;;;;;;;18.90;14.40;;;;;;;13.07;44.47;100345.67;118362;1178;22323;-78
2021/10/30 09:09:37;;;;;;;19.40;14.40;;;;;;;13.12;44.44;100346.67;118320;1178;21871;-78
2021/10/30 09:12:05;;;;;;;17.00;14.10;;;;;;;13.20;44.48;100343.64;118422;1178;21946;-78
2021/10/30 09:14:43;;;;;;;18.40;14.90;;;;;;;13.29;44.49;100341.45;118352;1178;22907;-78
2021/10/30 09:17:18;;;;;;;25.40;15.20;;;;;;;13.39;44.22;100342.06;118255;1176;21872;-77
2021/10/30 09:19:54;;;;;;;20.90;17.20;;;;;;;13.49;44.21;100336.55;118793;1176;21879;-78
2021/10/30 09:22:25;;;;;;;20.50;14.50;;;;;;;13.63;44.34;100339.27;118417;1178;21896;-77
2021/10/30 09:25:07;;;;;;;18.40;16.50;;;;;;;13.76;44.20;100336.95;118589;1176;23559;-77
2021/10/30 09:27:49;;;;;;;24.40;21.60;;;;;;;13.90;43.96;100332.48;118788;1176;23568;-77
2021/10/30 09:30:23;;;;;;;18.70;16.10;;;;;;;14.01;43.49;100333.33;118291;1178;22894;-77
2021/10/30 09:33:10;;;;;;;15.80;12.80;;;;;;;14.12;43.17;100333.74;118197;1179;22888;-77
2021/10/30 09:35:43;;;;;;;19.80;15.30;;;;;;;14.24;42.76;100333.34;118303;1179;22907;-77
2021/10/30 09:38:36;;;;;;;17.90;14.20;;;;;;;14.37;42.81;100333.94;118298;1179;21854;-77
2021/10/30 09:41:31;;;;;;;17.80;13.50;;;;;;;14.54;42.61;100330.23;117803;1182;21853;-77
2021/10/30 09:44:12;;;;;;;21.10;13.20;;;;;;;14.76;42.50;100328.88;117899;1182;23491;-77
2021/10/30 09:47:06;;;;;;;18.80;14.20;;;;;;;14.98;41.84;100331.41;117818;1178;21880;-76
2021/10/30 09:49:37;;;;;;;19.00;12.10;;;;;;;15.19;41.39;100329.22;118580;1177;22748;-76
2021/10/30 09:52:05;;;;;;;15.70;12.50;;;;;;;15.42;41.22;100325.13;117999;1180;21860;-77
2021/10/30 09:54:47;;;;;;;14.30;10.60;;;;;;;15.62;40.24;100323.23;118188;1180;21830;-77
2021/10/30 09:57:29;;;;;;;17.00;10.60;;;;;;;15.79;39.59;100319.67;118199;1180;23429;-76
2021/10/30 10:00:02;;;;;;;17.90;11.00;;;;;;;16.02;39.64;100315.44;117601;1184;21890;-77
2021/10/30 10:02:35;;;;;;;15.50;11.40;;;;;;;16.28;39.26;100313.48;117672;1180;21892;-76
2021/10/30 10:05:05;;;;;;;19.00;11.50;;;;;;;16.51;38.70;100312.30;117626;1183;24108;-77
2021/10/30 10:07:35;;;;;;;14.60;10.20;;;;;;;16.70;38.24;100303.85;117605;1183;23645;-76
2021/10/30 10:10:03;;;;;;;17.00;11.70;;;;;;;16.87;37.54;100303.88;117738;1180;21879;-77
2021/10/30 10:12:36;;;;;;;19.40;14.10;;;;;;;17.08;37.41;100299.08;118031;1180;22317;-76
2021/10/30 10:15:07;;;;;;;14.40;11.00;;;;;;;17.38;37.40;100296.80;118264;1176;21881;-77
2021/10/30 10:17:35;;;;;;;12.80;10.00;;;;;;;17.68;37.10;100295.23;118147;1176;23483;-77
2021/10/30 10:20:08;;;;;;;16.80;11.60;;;;;;;17.97;36.08;100287.70;118787;1175;22601;-76
2021/10/30 10:22:40;;;;;;;17.80;10.50;;;;;;;18.09;34.98;100285.33;118937;1171;24233;-78
2021/10/30 10:25:31;;;;;;;14.90;9.70;;;;;;;18.28;34.81;100282.04;118658;1164;21865;-78
2021/10/30 10:28:23;;;;;;;14.50;10.30;;;;;;;18.54;34.58;100280.46;119109;1172;24707;-77
2021/10/30 10:31:03;;;;;;;14.90;9.00;;;;;;;18.74;34.21;100272.48;119255;1171;21865;-77
2021/10/30 10:33:34;;;;;;;14.90;9.70;;;;;;;19.00;33.87;100267.88;119141;1171;21863;-77
2021/10/30 10:36:14;;;;;;;14.50;9.20;;;;;;;19.25;33.35;100265.66;118850;1170;22609;-77
2021/10/30 10:39:05;;;;;;;11.10;9.00;;;;;;;19.57;33.50;100261.91;119055;1174;22714;-78
2021/10/30 10:41:41;;;;;;;12.70;10.30;;;;;;;19.71;32.11;100259.88;119157;1170;21866;-76
2021/10/30 10:44:35;;;;;;;15.80;9.10;;;;;;;19.77;31.94;100255.02;118980;1174;23414;-79
2021/10/30 10:47:05;;;;;;;16.30;9.60;;;;;;;19.90;32.14;100249.50;119103;1174;22833;-77
2021/10/30 10:49:43;;;;;;;13.20;8.20;;;;;;;20.30;32.51;100245.91;118931;1171;23403;-78
2021/10/30 10:52:26;;;;;;;12.80;7.90;;;;;;;20.46;30.89;100241.67;118995;1170;22822;-77
2021/10/30 10:54:55;;;;;;;12.00;8.40;;;;;;;20.40;29.98;100245.16;118847;1175;22110;-77
2021/10/30 10:57:28;;;;;;;16.00;8.70;;;;;;;20.13;30.14;100241.52;119127;1171;22777;-76
2021/10/30 11:00:13;;;;;;;13.70;7.90;;;;;;;19.81;30.39;100239.95;118898;1174;22912;-77
2021/10/30 11:02:59;;;;;;;12.80;8.10;;;;;;;19.37;30.68;100240.54;118951;1171;22597;-79
2021/10/30 11:05:32;;;;;;;;;;;;;;;19.04;31.10;100227.50;118897;1175;23437;-78
2021/10/30 11:08:24;;;;;;;38.80;10.30;;;;;;;18.68;31.61;100224.92;118789;1175;21871;-78
2021/10/30 11:11:24;;;;;;;20.20;9.30;;;;;;;18.34;31.90;100219.45;118738;1175;22610;-78
2021/10/30 11:14:03;;;;;;;13.30;9.60;;;;;;;18.17;32.46;100202.89;118463;1173;21886;-78
2021/10/30 11:16:49;;;;;;;14.20;9.30;;;;;;;18.09;32.80;100202.05;118961;1166;21861;-77
2021/10/30 11:19:32;;;;;;;11.80;8.20;;;;;;;17.97;32.81;100202.58;118879;1173;23718;-78
2021/10/30 11:22:14;;;;;;;15.30;8.70;;;;;;;17.78;33.16;100204.61;118892;1174;21867;-77
2021/10/30 11:24:50;;;;;;;15.90;8.50;;;;;;;17.63;33.46;100194.16;118910;1173;22906;-77
2021/10/30 11:27:19;;;;;;;11.10;9.50;;;;;;;17.55;33.79;100190.38;119151;1172;24182;-79
2021/10/30 11:29:53;;;;;;;14.00;9.30;;;;;;;17.50;34.03;100188.39;119285;1172;22831;-78
2021/10/30 11:32:22;;;;;;;13.60;9.00;;;;;;;17.41;34.03;100184.80;119101;1173;21864;-78
2021/10/30 11:34:57;;;;;;;13.40;8.60;;;;;;;17.39;34.26;100187.08;119056;1171;21867;-77